Time;durP1;ratioP1;P1;durP2;ratioP2;P2;SDS_P1;SDS_P2;PMS_P1;PMS_P2;Temp;Humidity;BMP_temperature;BMP_pressure;BME280_temperature;BME280_humidity;BME280_pressure;Samples;Min_cycle;Max_cycle;Signal;HPM_P1;HPM_P2
2022/04/21 00:01:36;;;;;;;1.00;1.00;;;;;;;;;;5062280;28;20206;-65
2022/04/21 00:04:02;;;;;;;0.87;0.87;;;;;;;;;;5043829;28;20178;-64
2022/04/21 00:06:28;;;;;;;0.80;0.80;;;;;;;;;;5060330;28;20209;-65
2022/04/21 00:08:54;;;;;;;1.07;1.07;;;;;;;;;;5058185;28;20193;-65
2022/04/21 00:11:21;;;;;;;1.00;1.00;;;;;;;;;;5057664;28;20178;-65
2022/04/21 00:13:47;;;;;;;0.80;0.80;;;;;;;;;;5041644;28;20186;-65
2022/04/21 00:16:13;;;;;;;1.50;1.40;;;;;;;;;;5060907;28;20256;-65
2022/04/21 00:18:39;;;;;;;0.97;0.97;;;;;;;;;;5060429;28;20198;-64
2022/04/21 00:21:05;;;;;;;0.80;0.80;;;;;;;;;;5059034;28;20696;-65
2022/04/21 00:23:33;;;;;;;2.43;1.03;;;;;;;;;;5059206;28;20170;-65
2022/04/21 00:26:01;;;;;;;1.30;1.10;;;;;;;;;;5040483;28;20203;-65
2022/04/21 00:28:28;;;;;;;2.70;1.03;;;;;;;;;;5059309;28;20654;-66
2022/04/21 00:30:54;;;;;;;1.27;1.20;;;;;;;;;;5059837;28;20658;-65
2022/04/21 00:33:20;;;;;;;1.53;1.43;;;;;;;;;;5060152;28;20236;-65
2022/04/21 00:35:47;;;;;;;1.60;1.20;;;;;;;;;;5058656;28;20194;-65
2022/04/21 00:38:13;;;;;;;0.93;0.83;;;;;;;;;;5058781;28;20232;-66
2022/04/21 00:40:39;;;;;;;0.90;0.90;;;;;;;;;;5056762;28;20179;-66
2022/04/21 00:43:06;;;;;;;2.03;1.10;;;;;;;;;;5056586;28;20308;-65
2022/04/21 00:45:33;;;;;;;0.90;0.90;;;;;;;;;;5039671;28;20528;-65
2022/04/21 00:48:00;;;;;;;0.70;0.70;;;;;;;;;;5055768;28;20174;-66
2022/04/21 00:50:27;;;;;;;0.80;0.80;;;;;;;;;;5038369;28;20182;-65
2022/04/21 00:52:54;;;;;;;1.40;1.30;;;;;;;;;;5056821;28;20261;-65
2022/04/21 00:55:20;;;;;;;45.90;3.93;;;;;;;;;;5056054;28;20198;-64
2022/04/21 00:57:47;;;;;;;2.73;2.50;;;;;;;;;;5056650;28;20228;-65
2022/04/21 01:00:13;;;;;;;3.27;2.83;;;;;;;;;;5038435;28;20179;-64
2022/04/21 01:02:55;;;;;;;2.40;2.20;;;;;;;;;;5054380;28;20706;-64
2022/04/21 01:05:32;;;;;;;2.60;2.30;;;;;;;;;;5036131;28;20202;-65
2022/04/21 01:07:59;;;;;;;2.37;2.10;;;;;;;;;;5036484;28;20597;-65
2022/04/21 01:10:28;;;;;;;2.60;2.40;;;;;;;;;;5053754;28;20182;-64
2022/04/21 01:12:55;;;;;;;2.67;2.33;;;;;;;;;;5035865;28;20178;-65
2022/04/21 01:15:21;;;;;;;3.27;2.83;;;;;;;;;;5035647;28;20697;-65
2022/04/21 01:17:47;;;;;;;2.57;2.13;;;;;;;;;;5035485;28;20609;-65
2022/04/21 01:20:19;;;;;;;3.90;2.77;;;;;;;;;;5036025;28;20184;-66
2022/04/21 01:22:46;;;;;;;2.87;2.27;;;;;;;;;;5036035;28;20174;-65
2022/04/21 01:25:12;;;;;;;2.33;2.20;;;;;;;;;;5053803;28;20281;-65
2022/04/21 01:27:38;;;;;;;6.57;2.43;;;;;;;;;;5053666;28;20231;-64
2022/04/21 01:30:05;;;;;;;2.33;2.10;;;;;;;;;;5035648;28;20193;-65
2022/04/21 01:32:35;;;;;;;3.33;2.23;;;;;;;;;;5035754;28;20185;-64
2022/04/21 01:35:01;;;;;;;2.50;2.30;;;;;;;;;;5053863;28;20171;-65
2022/04/21 01:42:56;;;;;;;2.77;2.27;;;;;;;;;;5057801;28;20169;-66
2022/04/21 01:45:22;;;;;;;3.13;2.40;;;;;;;;;;5039547;28;20293;-66
2022/04/21 01:47:48;;;;;;;2.93;2.30;;;;;;;;;;5057289;28;20263;-66
2022/04/21 01:50:14;;;;;;;2.87;2.50;;;;;;;;;;5039378;28;20248;-66
2022/04/21 01:52:40;;;;;;;3.27;2.53;;;;;;;;;;5057131;28;20175;-66
2022/04/21 01:55:07;;;;;;;3.00;2.70;;;;;;;;;;5057107;28;20534;-66
2022/04/21 01:57:33;;;;;;;2.60;2.20;;;;;;;;;;5057102;28;20198;-67
2022/04/21 01:59:59;;;;;;;2.43;2.23;;;;;;;;;;5057565;28;20253;-66
2022/04/21 02:02:25;;;;;;;2.90;2.20;;;;;;;;;;5039568;28;20206;-66
2022/04/21 02:04:51;;;;;;;2.57;2.33;;;;;;;;;;5057022;28;20189;-65
2022/04/21 02:07:17;;;;;;;2.77;2.37;;;;;;;;;;5057559;28;20368;-66
2022/04/21 02:09:43;;;;;;;4.07;2.90;;;;;;;;;;5057322;28;20312;-65
2022/04/21 02:12:11;;;;;;;2.83;2.60;;;;;;;;;;5057401;28;20206;-66
2022/04/21 02:14:37;;;;;;;5.97;2.47;;;;;;;;;;5039461;28;20179;-65
2022/04/21 02:17:05;;;;;;;3.30;3.00;;;;;;;;;;5065145;28;20373;-66
2022/04/21 02:19:32;;;;;;;5.03;2.73;;;;;;;;;;5051993;28;20201;-66
2022/04/21 02:21:58;;;;;;;2.47;2.27;;;;;;;;;;5053887;28;20206;-66
2022/04/21 02:24:24;;;;;;;8.60;2.70;;;;;;;;;;5072340;28;20178;-66
2022/04/21 02:26:50;;;;;;;4.10;2.27;;;;;;;;;;5061919;28;20190;-66
2022/04/21 02:29:16;;;;;;;3.07;2.60;;;;;;;;;;5040211;28;20201;-65
2022/04/21 02:31:42;;;;;;;3.00;2.70;;;;;;;;;;5039926;28;20646;-66
2022/04/21 02:34:08;;;;;;;3.83;2.67;;;;;;;;;;5057242;28;20608;-66
2022/04/21 02:36:34;;;;;;;7.47;3.13;;;;;;;;;;5056762;28;20650;-66
2022/04/21 02:39:00;;;;;;;3.00;2.70;;;;;;;;;;5039037;28;20297;-65
2022/04/21 02:41:26;;;;;;;5.03;3.23;;;;;;;;;;5039596;28;20182;-65
2022/04/21 02:43:52;;;;;;;5.97;3.10;;;;;;;;;;5057105;28;20173;-67
2022/04/21 02:46:18;;;;;;;3.43;2.57;;;;;;;;;;5039170;28;20289;-67
2022/04/21 02:48:44;;;;;;;3.90;3.03;;;;;;;;;;5056727;28;20182;-65
2022/04/21 02:51:10;;;;;;;3.67;2.97;;;;;;;;;;5039040;28;20183;-66
2022/04/21 02:59:06;;;;;;;6.93;3.87;;;;;;;;;;5057190;28;20251;-66
2022/04/21 03:01:32;;;;;;;5.13;4.03;;;;;;;;;;5039208;28;20182;-66
2022/04/21 03:03:58;;;;;;;4.70;3.20;;;;;;;;;;5057521;28;20721;-66
2022/04/21 03:06:24;;;;;;;7.80;3.63;;;;;;;;;;5057415;28;20597;-66
2022/04/21 03:08:50;;;;;;;5.50;3.47;;;;;;;;;;5058051;28;20186;-65
2022/04/21 03:11:17;;;;;;;5.17;3.03;;;;;;;;;;5057598;28;20174;-66
2022/04/21 03:13:43;;;;;;;3.90;2.77;;;;;;;;;;5040398;28;20214;-66
2022/04/21 03:16:08;;;;;;;5.37;3.07;;;;;;;;;;5057147;28;20202;-66
2022/04/21 03:18:34;;;;;;;3.33;2.53;;;;;;;;;;5056385;28;20194;-66
2022/04/21 03:26:29;;;;;;;3.07;2.40;;;;;;;;;;5057033;28;20213;-66
2022/04/21 03:28:55;;;;;;;2.80;2.60;;;;;;;;;;5066388;28;20261;-66
2022/04/21 03:31:23;;;;;;;2.77;2.50;;;;;;;;;;5071196;28;20175;-66
2022/04/21 03:33:50;;;;;;;3.07;2.50;;;;;;;;;;5068052;28;20194;-66
2022/04/21 03:36:16;;;;;;;3.07;2.57;;;;;;;;;;5067136;28;20201;-66
2022/04/21 03:38:42;;;;;;;2.60;2.30;;;;;;;;;;5065080;28;20225;-65
2022/04/21 03:41:08;;;;;;;3.23;2.43;;;;;;;;;;5062492;28;20634;-66
2022/04/21 03:43:35;;;;;;;3.23;2.33;;;;;;;;;;5039348;28;20213;-66
2022/04/21 03:46:01;;;;;;;4.23;2.67;;;;;;;;;;5056908;28;20194;-65
2022/04/21 03:48:27;;;;;;;8.03;2.83;;;;;;;;;;5039049;28;20183;-66
2022/04/21 03:50:53;;;;;;;3.00;2.70;;;;;;;;;;5038233;28;20183;-66
2022/04/21 03:53:19;;;;;;;3.37;2.70;;;;;;;;;;5055850;28;20182;-65
2022/04/21 03:55:44;;;;;;;5.03;2.80;;;;;;;;;;5056000;28;20229;-65
2022/04/21 03:58:10;;;;;;;4.17;3.27;;;;;;;;;;5055465;28;20225;-65
2022/04/21 04:00:36;;;;;;;4.83;2.93;;;;;;;;;;5036608;28;20265;-66
2022/04/21 04:03:02;;;;;;;4.13;3.20;;;;;;;;;;5055675;28;20175;-66
2022/04/21 04:05:28;;;;;;;3.87;2.73;;;;;;;;;;5055387;28;20205;-65
2022/04/21 04:10:51;;;;;;;3.97;3.00;;;;;;;;;;5055836;28;20605;-65
2022/04/21 04:13:17;;;;;;;3.73;2.93;;;;;;;;;;5055951;28;20607;-65
2022/04/21 04:15:47;;;;;;;3.27;2.80;;;;;;;;;;5055360;28;20198;-65
2022/04/21 04:18:13;;;;;;;4.10;3.17;;;;;;;;;;5037235;28;20259;-66
2022/04/21 04:20:39;;;;;;;3.87;2.97;;;;;;;;;;5055934;28;20179;-66
2022/04/21 04:23:05;;;;;;;3.27;2.97;;;;;;;;;;5055411;28;20179;-66
2022/04/21 04:25:31;;;;;;;3.60;3.03;;;;;;;;;;5055199;28;20198;-66
2022/04/21 04:27:57;;;;;;;4.00;3.10;;;;;;;;;;5055895;28;20183;-65
2022/04/21 04:30:23;;;;;;;3.53;2.87;;;;;;;;;;5037379;28;20186;-66
2022/04/21 04:32:49;;;;;;;4.73;3.20;;;;;;;;;;5037562;28;20183;-65
2022/04/21 04:35:15;;;;;;;8.07;3.17;;;;;;;;;;5055713;28;20205;-65
2022/04/21 04:37:41;;;;;;;5.10;3.27;;;;;;;;;;5038085;28;20208;-65
2022/04/21 04:40:08;;;;;;;4.40;3.50;;;;;;;;;;5037037;28;20277;-66
2022/04/21 04:42:34;;;;;;;6.57;3.70;;;;;;;;;;5054819;28;20181;-65
2022/04/21 04:47:45;;;;;;;3.80;3.20;;;;;;;;;;5056514;28;20641;-65
2022/04/21 04:50:11;;;;;;;5.23;3.17;;;;;;;;;;5056293;28;20174;-65
2022/04/21 04:52:37;;;;;;;4.03;2.97;;;;;;;;;;5038528;28;20182;-65
2022/04/21 04:55:03;;;;;;;3.80;3.10;;;;;;;;;;5055278;28;20548;-65
2022/04/21 04:57:29;;;;;;;4.00;3.00;;;;;;;;;;5037524;28;20207;-66
2022/04/21 04:59:55;;;;;;;3.60;3.00;;;;;;;;;;5055234;28;20254;-66
2022/04/21 05:02:21;;;;;;;4.87;3.27;;;;;;;;;;5055204;28;20209;-65
2022/04/21 05:04:47;;;;;;;3.70;2.97;;;;;;;;;;5055464;28;20209;-65
2022/04/21 05:07:17;;;;;;;3.53;3.20;;;;;;;;;;5055035;28;20689;-65
2022/04/21 05:09:43;;;;;;;3.67;2.97;;;;;;;;;;5054834;28;20178;-65
2022/04/21 05:12:09;;;;;;;3.90;3.17;;;;;;;;;;5054814;28;20182;-65
2022/04/21 05:14:36;;;;;;;5.47;3.10;;;;;;;;;;5054525;28;20578;-65
2022/04/21 05:17:02;;;;;;;3.47;3.07;;;;;;;;;;5036397;28;20674;-66
2022/04/21 05:19:28;;;;;;;6.93;3.47;;;;;;;;;;5036954;28;20232;-65
2022/04/21 05:21:54;;;;;;;4.70;3.20;;;;;;;;;;5054418;28;20182;-66
2022/04/21 05:24:21;;;;;;;4.10;3.20;;;;;;;;;;5054279;28;20178;-65
2022/04/21 05:26:47;;;;;;;4.70;3.83;;;;;;;;;;5036450;28;20239;-65
2022/04/21 05:32:04;;;;;;;10.90;4.30;;;;;;;;;;5054634;28;20236;-65
2022/04/21 05:34:30;;;;;;;8.47;4.37;;;;;;;;;;5054310;28;20190;-65
2022/04/21 05:36:58;;;;;;;7.70;3.97;;;;;;;;;;5054501;28;20202;-65
2022/04/21 05:39:25;;;;;;;6.67;3.40;;;;;;;;;;5054298;28;20241;-65
2022/04/21 05:41:52;;;;;;;7.40;4.17;;;;;;;;;;5036923;28;20179;-65
2022/04/21 05:44:18;;;;;;;4.53;3.27;;;;;;;;;;5036731;28;20259;-65
2022/04/21 05:46:44;;;;;;;5.73;3.77;;;;;;;;;;5054418;28;20204;-66
2022/04/21 05:49:11;;;;;;;5.40;3.43;;;;;;;;;;5055013;28;20175;-65
2022/04/21 05:51:37;;;;;;;6.40;3.07;;;;;;;;;;5036222;28;20178;-65
2022/04/21 05:54:07;;;;;;;6.00;3.63;;;;;;;;;;5035904;28;20190;-67
2022/04/21 05:56:34;;;;;;;5.07;3.60;;;;;;;;;;5036174;28;20207;-65
2022/04/21 05:59:00;;;;;;;5.70;3.70;;;;;;;;;;5053835;28;20205;-66
2022/04/21 06:01:26;;;;;;;7.40;3.17;;;;;;;;;;5035978;28;20178;-65
2022/04/21 06:03:52;;;;;;;5.30;3.27;;;;;;;;;;5046006;23;20288;-68
2022/04/21 06:06:18;;;;;;;6.37;3.80;;;;;;;;;;5032948;28;20182;-66
2022/04/21 06:08:45;;;;;;;8.10;3.53;;;;;;;;;;5032929;28;20176;-66
2022/04/21 06:11:14;;;;;;;6.07;3.43;;;;;;;;;;5032793;28;20632;-67
2022/04/21 06:13:41;;;;;;;5.40;3.33;;;;;;;;;;5015627;28;20587;-67
2022/04/21 06:16:07;;;;;;;17.37;4.17;;;;;;;;;;5032758;28;20179;-67
2022/04/21 06:18:33;;;;;;;5.07;3.43;;;;;;;;;;5032691;28;20203;-67
2022/04/21 06:21:00;;;;;;;5.37;3.93;;;;;;;;;;5014821;28;20187;-66
2022/04/21 06:23:26;;;;;;;6.33;4.20;;;;;;;;;;5033182;28;20615;-66
2022/04/21 06:25:58;;;;;;;5.70;4.00;;;;;;;;;;5036272;28;20175;-66
2022/04/21 06:28:25;;;;;;;6.20;4.00;;;;;;;;;;5018455;28;20179;-67
2022/04/21 06:30:51;;;;;;;5.93;3.67;;;;;;;;;;5036105;28;20266;-65
2022/04/21 06:33:17;;;;;;;5.57;3.40;;;;;;;;;;5036005;28;20230;-66
2022/04/21 06:35:44;;;;;;;3.23;2.90;;;;;;;;;;5035987;28;20237;-67
2022/04/21 06:38:10;;;;;;;3.77;2.73;;;;;;;;;;5036163;28;20206;-66
2022/04/21 06:40:36;;;;;;;3.13;2.60;;;;;;;;;;5035787;28;20188;-64
2022/04/21 06:48:01;;;;;;;3.90;3.00;;;;;;;;;;5018029;28;20193;-67
2022/04/21 06:48:33;;;;;;;3.53;3.00;;;;;;;;;;5035946;28;20720;-67
2022/04/21 06:50:59;;;;;;;4.03;3.50;;;;;;;;;;5035920;28;20168;-66
2022/04/21 06:53:25;;;;;;;4.10;2.33;;;;;;;;;;5035379;28;20286;-65
2022/04/21 06:55:51;;;;;;;5.87;3.13;;;;;;;;;;5017727;28;20190;-67
2022/04/21 06:58:17;;;;;;;5.73;3.63;;;;;;;;;;5035444;28;20671;-66
2022/04/21 07:00:43;;;;;;;5.57;3.67;;;;;;;;;;5017674;28;20179;-66
2022/04/21 07:03:09;;;;;;;5.47;3.63;;;;;;;;;;5035216;28;20182;-67
2022/04/21 07:05:35;;;;;;;4.07;3.30;;;;;;;;;;5035281;28;20190;-66
2022/04/21 07:08:01;;;;;;;3.70;3.40;;;;;;;;;;5017395;28;20194;-66
2022/04/21 07:10:27;;;;;;;5.97;3.93;;;;;;;;;;5035045;28;20179;-66
2022/04/21 07:12:53;;;;;;;3.37;2.93;;;;;;;;;;5035408;28;20183;-66
2022/04/21 07:15:19;;;;;;;6.73;3.70;;;;;;;;;;5017282;28;20210;-66
2022/04/21 07:17:45;;;;;;;3.97;2.83;;;;;;;;;;5035020;28;20203;-66
2022/04/21 07:20:12;;;;;;;3.67;3.00;;;;;;;;;;5035325;28;20171;-67
2022/04/21 07:22:38;;;;;;;3.70;3.03;;;;;;;;;;5034993;28;20179;-68
2022/04/21 07:25:05;;;;;;;2.43;2.23;;;;;;;;;;5034969;28;20206;-67
2022/04/21 07:27:31;;;;;;;3.50;2.97;;;;;;;;;;5016956;28;20179;-65
2022/04/21 07:29:57;;;;;;;3.23;2.50;;;;;;;;;;5035126;28;20179;-66
2022/04/21 07:32:23;;;;;;;3.40;3.10;;;;;;;;;;5034806;28;20561;-66
2022/04/21 07:34:49;;;;;;;3.07;2.67;;;;;;;;;;5016599;28;20671;-67
2022/04/21 07:37:15;;;;;;;3.63;3.33;;;;;;;;;;5034881;28;20194;-67
2022/04/21 07:39:42;;;;;;;4.37;3.60;;;;;;;;;;5034800;28;20175;-67
2022/04/21 07:42:08;;;;;;;3.90;3.00;;;;;;;;;;5016925;28;20670;-67
2022/04/21 07:44:35;;;;;;;2.93;2.63;;;;;;;;;;5016734;28;20261;-67
2022/04/21 07:47:01;;;;;;;3.90;3.60;;;;;;;;;;5034621;28;20635;-66
2022/04/21 07:49:46;;;;;;;3.87;3.07;;;;;;;;;;5034790;28;20229;-70
2022/04/21 07:55:13;;;;;;;4.67;3.20;;;;;;;;;;5034717;28;20341;-65
2022/04/21 07:57:40;;;;;;;4.90;2.83;;;;;;;;;;5016734;28;20199;-65
2022/04/21 08:00:06;;;;;;;4.20;2.60;;;;;;;;;;5016675;28;20183;-66
2022/04/21 08:02:32;;;;;;;3.30;2.60;;;;;;;;;;5016524;28;20187;-66
2022/04/21 08:04:58;;;;;;;5.70;3.37;;;;;;;;;;5033988;28;20213;-66
2022/04/21 08:07:24;;;;;;;3.50;3.20;;;;;;;;;;5034246;28;20257;-65
2022/04/21 08:09:50;;;;;;;9.00;3.60;;;;;;;;;;5034288;28;20210;-65
2022/04/21 08:12:16;;;;;;;2.63;2.43;;;;;;;;;;5034231;28;20673;-64
2022/04/21 08:14:42;;;;;;;9.27;3.20;;;;;;;;;;5034066;28;20203;-64
2022/04/21 08:17:08;;;;;;;2.63;2.43;;;;;;;;;;5016251;28;20179;-64
2022/04/21 08:19:34;;;;;;;4.83;3.07;;;;;;;;;;5034004;28;20643;-65
2022/04/21 08:22:00;;;;;;;4.23;2.30;;;;;;;;;;5016179;28;20179;-64
2022/04/21 08:32:46;;;;;;;6.60;2.33;;;;;;;;;;5034381;28;20165;-65
2022/04/21 08:35:15;;;;;;;2.53;1.90;;;;;;;;;;5033729;28;20550;-65
2022/04/21 08:37:42;;;;;;;3.63;3.00;;;;;;;;;;5033785;28;20203;-66
2022/04/21 08:40:10;;;;;;;3.03;2.60;;;;;;;;;;5016240;28;20207;-68
2022/04/21 08:42:37;;;;;;;2.77;2.30;;;;;;;;;;5033694;28;20546;-67
2022/04/21 08:45:03;;;;;;;2.73;2.53;;;;;;;;;;5015812;28;20257;-65
2022/04/21 08:47:29;;;;;;;3.13;2.47;;;;;;;;;;5015304;28;20225;-65
2022/04/21 08:50:06;;;;;;;2.47;2.27;;;;;;;;;;5033738;28;20206;-65
2022/04/21 08:52:35;;;;;;;5.20;2.37;;;;;;;;;;5033677;28;20201;-65
2022/04/21 08:55:05;;;;;;;3.93;2.20;;;;;;;;;;5033396;28;20694;-64
2022/04/21 08:57:31;;;;;;;4.73;2.93;;;;;;;;;;5033203;28;20690;-66
2022/04/21 08:59:57;;;;;;;2.57;2.37;;;;;;;;;;5015884;28;20183;-66
2022/04/21 09:02:35;;;;;;;2.63;2.43;;;;;;;;;;5033352;28;20183;-67
2022/04/21 09:05:02;;;;;;;2.60;2.40;;;;;;;;;;5015316;28;20225;-69
2022/04/21 09:07:28;;;;;;;2.50;2.30;;;;;;;;;;5033430;28;20184;-65
2022/04/21 09:10:07;;;;;;;2.57;2.37;;;;;;;;;;5015609;28;20175;-65
2022/04/21 09:12:34;;;;;;;2.73;2.20;;;;;;;;;;5033543;28;20658;-65
2022/04/21 09:15:07;;;;;;;3.10;2.07;;;;;;;;;;5033606;28;20228;-66
2022/04/21 09:17:38;;;;;;;2.23;2.03;;;;;;;;;;5033184;28;20207;-65
2022/04/21 09:20:05;;;;;;;5.63;1.83;;;;;;;;;;5033213;28;20254;-65
2022/04/21 09:22:32;;;;;;;5.77;2.63;;;;;;;;;;5033718;28;20189;-65
2022/04/21 09:24:59;;;;;;;2.33;2.03;;;;;;;;;;5033182;28;20199;-65
2022/04/21 09:27:25;;;;;;;3.73;2.07;;;;;;;;;;5033300;28;20182;-65
2022/04/21 09:29:51;;;;;;;2.33;2.07;;;;;;;;;;5033600;28;20171;-66
2022/04/21 09:32:18;;;;;;;3.03;2.37;;;;;;;;;;5015427;28;20258;-65
2022/04/21 09:34:51;;;;;;;2.50;1.90;;;;;;;;;;5032975;28;20265;-65
2022/04/21 09:37:20;;;;;;;2.27;2.00;;;;;;;;;;5033269;28;20170;-65
2022/04/21 09:39:50;;;;;;;5.03;2.20;;;;;;;;;;5033298;28;20610;-64
2022/04/21 09:42:26;;;;;;;2.13;1.80;;;;;;;;;;5033174;28;20182;-65
2022/04/21 09:47:37;;;;;;;1.93;1.70;;;;;;;;;;5033453;28;20210;-66
2022/04/21 09:50:14;;;;;;;6.27;2.20;;;;;;;;;;5015401;28;20560;-65
2022/04/21 09:52:47;;;;;;;2.83;1.93;;;;;;;;;;5032920;28;20186;-63
2022/04/21 09:55:26;;;;;;;2.13;1.93;;;;;;;;;;5033137;28;20201;-64
2022/04/21 09:57:53;;;;;;;6.13;1.83;;;;;;;;;;5016381;28;20206;-63
2022/04/21 10:00:21;;;;;;;4.17;1.90;;;;;;;;;;5036939;28;20175;-64
2022/04/21 10:02:49;;;;;;;1.90;1.80;;;;;;;;;;5036452;28;20175;-64
2022/04/21 10:05:15;;;;;;;1.93;1.83;;;;;;;;;;5036571;28;20245;-67
2022/04/21 10:07:42;;;;;;;2.53;2.00;;;;;;;;;;5018852;28;20182;-65
2022/04/21 10:10:08;;;;;;;2.33;2.10;;;;;;;;;;5036569;28;20659;-64
2022/04/21 10:12:34;;;;;;;2.73;2.27;;;;;;;;;;5036317;28;20232;-64
2022/04/21 10:15:01;;;;;;;2.27;1.97;;;;;;;;;;5036203;28;20693;-64
2022/04/21 10:17:27;;;;;;;2.43;2.10;;;;;;;;;;5018490;28;20179;-62
2022/04/21 10:19:53;;;;;;;3.47;2.00;;;;;;;;;;5036361;28;20540;-64
2022/04/21 10:22:19;;;;;;;2.20;1.90;;;;;;;;;;5036133;28;20250;-62
2022/04/21 10:24:46;;;;;;;3.03;2.10;;;;;;;;;;5036336;28;20675;-64
2022/04/21 10:27:31;;;;;;;2.47;2.17;;;;;;;;;;5018485;28;20566;-64
2022/04/21 10:29:57;;;;;;;2.10;1.90;;;;;;;;;;5018272;28;20190;-66
2022/04/21 10:32:43;;;;;;;1.87;1.70;;;;;;;;;;5035839;28;20211;-64
2022/04/21 10:35:19;;;;;;;1.83;1.63;;;;;;;;;;5017909;28;20207;-66
2022/04/21 10:37:46;;;;;;;2.20;2.00;;;;;;;;;;5035735;28;20762;-64
2022/04/21 10:40:15;;;;;;;2.50;2.13;;;;;;;;;;5017902;28;20175;-65
2022/04/21 10:42:57;;;;;;;2.20;1.77;;;;;;;;;;5035928;28;20167;-64
2022/04/21 10:45:27;;;;;;;2.83;2.00;;;;;;;;;;5035981;28;20222;-65
2022/04/21 10:48:06;;;;;;;2.33;1.90;;;;;;;;;;5035678;28;20191;-64
2022/04/21 10:50:33;;;;;;;1.87;1.77;;;;;;;;;;5035952;28;20262;-64
2022/04/21 10:58:35;;;;;;;2.07;1.80;;;;;;;;;;5035760;28;20221;-64
2022/04/21 11:01:07;;;;;;;1.73;1.63;;;;;;;;;;5035473;28;20179;-64
2022/04/21 11:03:33;;;;;;;1.77;1.67;;;;;;;;;;5035319;28;20203;-64
2022/04/21 11:06:13;;;;;;;2.00;1.80;;;;;;;;;;5035425;28;20171;-64
2022/04/21 11:08:39;;;;;;;1.70;1.57;;;;;;;;;;5017455;28;20171;-65
2022/04/21 11:11:05;;;;;;;1.93;1.83;;;;;;;;;;5034745;28;20179;-65
2022/04/21 11:13:50;;;;;;;4.07;2.20;;;;;;;;;;5017572;28;20210;-65
2022/04/21 11:16:35;;;;;;;3.87;2.00;;;;;;;;;;5017471;28;20206;-65
2022/04/21 11:19:19;;;;;;;2.47;1.83;;;;;;;;;;5035449;28;20203;-64
2022/04/21 11:21:55;;;;;;;4.20;2.10;;;;;;;;;;5035257;28;20232;-65
2022/04/21 11:24:21;;;;;;;3.70;2.10;;;;;;;;;;5017925;28;20222;-65
2022/04/21 11:26:53;;;;;;;2.37;2.17;;;;;;;;;;5035563;28;20226;-64
2022/04/21 11:29:19;;;;;;;2.80;2.40;;;;;;;;;;5035707;28;20167;-65
2022/04/21 11:31:45;;;;;;;2.97;1.90;;;;;;;;;;5017623;28;20197;-65
2022/04/21 11:34:11;;;;;;;7.50;2.50;;;;;;;;;;5034997;28;20253;-66
2022/04/21 11:36:40;;;;;;;2.80;2.13;;;;;;;;;;5035111;28;20202;-66
2022/04/21 11:39:07;;;;;;;2.93;2.10;;;;;;;;;;5035111;28;20203;-64
2022/04/21 11:41:33;;;;;;;2.57;2.20;;;;;;;;;;5016941;28;20195;-65
2022/04/21 11:44:01;;;;;;;2.80;2.13;;;;;;;;;;5034710;28;20195;-65
2022/04/21 11:46:27;;;;;;;2.80;2.57;;;;;;;;;;5034662;28;20253;-65
2022/04/21 11:49:00;;;;;;;2.83;2.63;;;;;;;;;;5035027;28;20535;-65
2022/04/21 11:51:26;;;;;;;3.03;2.47;;;;;;;;;;5034800;28;20659;-65
2022/04/21 11:53:52;;;;;;;5.60;2.33;;;;;;;;;;5034590;28;20226;-65
2022/04/21 11:56:18;;;;;;;2.87;2.57;;;;;;;;;;5016572;28;20183;-66
2022/04/21 11:58:45;;;;;;;2.97;2.37;;;;;;;;;;5016596;28;20305;-65
2022/04/21 12:06:44;;;;;;;3.23;2.63;;;;;;;;;;5034791;28;20170;-65
2022/04/21 12:09:15;;;;;;;3.07;2.40;;;;;;;;;;5016596;28;20214;-65
2022/04/21 12:11:41;;;;;;;2.33;2.10;;;;;;;;;;5034318;28;20243;-65
2022/04/21 12:14:07;;;;;;;4.80;3.00;;;;;;;;;;5016444;28;20234;-65
2022/04/21 12:16:36;;;;;;;3.27;2.53;;;;;;;;;;5016533;28;20187;-65
2022/04/21 12:19:16;;;;;;;3.97;3.60;;;;;;;;;;5016433;28;20563;-64
2022/04/21 12:21:43;;;;;;;4.83;2.33;;;;;;;;;;5015766;28;20187;-65
2022/04/21 12:24:12;;;;;;;2.93;2.63;;;;;;;;;;5017333;28;20210;-65
2022/04/21 12:26:38;;;;;;;3.03;2.63;;;;;;;;;;5016252;28;20183;-65
2022/04/21 12:29:08;;;;;;;2.83;2.30;;;;;;;;;;5034104;28;20179;-65
2022/04/21 12:31:43;;;;;;;3.07;2.53;;;;;;;;;;5034163;28;20179;-64
2022/04/21 12:34:11;;;;;;;3.63;2.97;;;;;;;;;;5033931;28;20336;-64
2022/04/21 12:36:37;;;;;;;2.97;2.73;;;;;;;;;;5016088;28;20194;-65
2022/04/21 12:39:03;;;;;;;3.20;2.90;;;;;;;;;;5033643;28;20199;-65
2022/04/21 12:41:29;;;;;;;2.13;1.97;;;;;;;;;;5034007;28;20254;-64
2022/04/21 12:43:57;;;;;;;2.30;2.10;;;;;;;;;;5033817;28;20686;-65
2022/04/21 12:46:23;;;;;;;2.40;2.20;;;;;;;;;;5016205;28;20237;-66
2022/04/21 12:48:49;;;;;;;2.10;2.00;;;;;;;;;;5015966;28;20183;-64
2022/04/21 12:51:19;;;;;;;2.30;2.10;;;;;;;;;;5033530;28;20193;-65
2022/04/21 12:53:45;;;;;;;2.53;2.10;;;;;;;;;;5033449;28;20226;-65
2022/04/21 12:56:12;;;;;;;3.40;2.40;;;;;;;;;;5033805;28;20179;-65
2022/04/21 12:58:38;;;;;;;2.27;2.07;;;;;;;;;;5033369;28;20203;-65
2022/04/21 13:01:05;;;;;;;3.30;2.13;;;;;;;;;;5015694;28;20270;-64
2022/04/21 13:03:32;;;;;;;5.40;2.30;;;;;;;;;;5015956;28;20222;-65
2022/04/21 13:05:58;;;;;;;3.30;2.43;;;;;;;;;;5015622;28;20206;-64
2022/04/21 13:08:25;;;;;;;3.03;2.40;;;;;;;;;;5033701;28;20262;-65
2022/04/21 13:10:51;;;;;;;3.27;2.40;;;;;;;;;;5015912;28;20209;-64
2022/04/21 13:13:17;;;;;;;3.20;2.30;;;;;;;;;;5033277;28;20183;-65
2022/04/21 13:15:44;;;;;;;2.90;2.13;;;;;;;;;;5015408;28;20609;-65
2022/04/21 13:18:10;;;;;;;2.30;2.10;;;;;;;;;;5015304;28;20213;-66
2022/04/21 13:23:24;;;;;;;2.87;2.40;;;;;;;;;;5033463;28;20341;-65
2022/04/21 13:25:50;;;;;;;2.73;2.23;;;;;;;;;;5033261;28;20174;-65
2022/04/21 13:28:16;;;;;;;2.60;2.23;;;;;;;;;;5015365;28;20278;-65
2022/04/21 13:30:42;;;;;;;3.00;2.73;;;;;;;;;;5033167;28;20528;-66
2022/04/21 13:33:23;;;;;;;3.20;2.60;;;;;;;;;;5017097;28;20187;-67
2022/04/21 13:35:52;;;;;;;2.10;1.93;;;;;;;;;;5037153;28;20166;-64
2022/04/21 13:38:19;;;;;;;2.33;2.10;;;;;;;;;;5037069;28;20206;-66
2022/04/21 13:40:45;;;;;;;2.43;2.17;;;;;;;;;;5036997;28;20171;-65
2022/04/21 13:43:11;;;;;;;2.23;1.93;;;;;;;;;;5036762;28;20179;-65
2022/04/21 13:45:38;;;;;;;2.00;1.87;;;;;;;;;;5037224;28;20548;-65
2022/04/21 13:48:05;;;;;;;3.70;2.10;;;;;;;;;;5036863;28;20187;-65
2022/04/21 13:50:31;;;;;;;2.20;2.00;;;;;;;;;;5019052;28;20186;-64
2022/04/21 13:52:57;;;;;;;1.97;1.70;;;;;;;;;;5037451;28;20241;-65
2022/04/21 13:55:23;;;;;;;2.90;2.10;;;;;;;;;;5036847;28;20198;-65
2022/04/21 13:57:49;;;;;;;2.70;2.30;;;;;;;;;;5036972;28;20234;-66
2022/04/21 14:00:15;;;;;;;3.23;2.23;;;;;;;;;;5037012;28;20647;-65
2022/04/21 14:02:41;;;;;;;1.97;1.80;;;;;;;;;;5037144;28;20179;-66
2022/04/21 14:05:07;;;;;;;3.37;2.77;;;;;;;;;;5036571;28;20230;-63
2022/04/21 14:07:33;;;;;;;3.10;2.60;;;;;;;;;;5036518;28;20172;-69
2022/04/21 14:09:59;;;;;;;3.07;2.67;;;;;;;;;;5018671;28;20175;-65
2022/04/21 14:12:25;;;;;;;5.00;2.97;;;;;;;;;;5037110;28;20185;-65
2022/04/21 14:14:52;;;;;;;2.60;2.27;;;;;;;;;;5036469;28;20702;-65
2022/04/21 14:17:18;;;;;;;4.30;3.37;;;;;;;;;;5036447;28;20167;-64
2022/04/21 14:19:44;;;;;;;3.33;3.03;;;;;;;;;;5036503;28;20733;-64
2022/04/21 14:22:10;;;;;;;5.47;3.10;;;;;;;;;;5018322;28;20203;-65
2022/04/21 14:24:37;;;;;;;4.23;3.67;;;;;;;;;;5036712;28;20241;-65
2022/04/21 14:27:03;;;;;;;3.67;3.13;;;;;;;;;;5036264;28;20178;-64
2022/04/21 14:29:29;;;;;;;4.23;3.00;;;;;;;;;;5018430;28;20187;-66
2022/04/21 14:31:55;;;;;;;6.23;3.20;;;;;;;;;;5036017;28;20262;-65
2022/04/21 14:34:21;;;;;;;5.40;3.33;;;;;;;;;;5035912;28;20755;-65
2022/04/21 14:36:48;;;;;;;3.80;3.27;;;;;;;;;;5035887;28;20672;-64
2022/04/21 14:44:43;;;;;;;3.57;2.90;;;;;;;;;;5034967;28;20575;-63
2022/04/21 14:47:10;;;;;;;5.27;3.57;;;;;;;;;;5017821;28;20229;-64
2022/04/21 14:49:36;;;;;;;4.07;3.50;;;;;;;;;;5017795;28;20241;-64
2022/04/21 14:52:02;;;;;;;4.27;3.87;;;;;;;;;;5017751;28;20773;-68
2022/04/21 14:54:28;;;;;;;4.13;3.53;;;;;;;;;;5035556;28;20198;-65
2022/04/21 14:56:54;;;;;;;3.53;3.20;;;;;;;;;;5036077;28;20635;-65
2022/04/21 14:59:22;;;;;;;5.50;3.93;;;;;;;;;;5017477;28;20215;-65
2022/04/21 15:01:48;;;;;;;5.80;3.67;;;;;;;;;;5035840;28;20167;-65
2022/04/21 15:04:14;;;;;;;4.30;3.90;;;;;;;;;;5035163;28;20215;-63
2022/04/21 15:06:45;;;;;;;7.53;3.80;;;;;;;;;;5035393;28;20171;-64
2022/04/21 15:09:11;;;;;;;6.80;4.20;;;;;;;;;;5035484;28;20260;-64
2022/04/21 15:11:41;;;;;;;5.67;3.90;;;;;;;;;;5035294;28;20258;-63
2022/04/21 15:14:07;;;;;;;3.80;3.40;;;;;;;;;;5017294;28;20207;-63
2022/04/21 15:16:33;;;;;;;4.27;3.87;;;;;;;;;;5017326;28;20191;-63
2022/04/21 15:18:59;;;;;;;4.30;3.90;;;;;;;;;;5017397;28;20222;-65
2022/04/21 15:21:25;;;;;;;5.40;3.63;;;;;;;;;;5035528;28;20235;-65
2022/04/21 15:23:51;;;;;;;3.30;3.00;;;;;;;;;;5034983;28;20199;-64
2022/04/21 15:26:18;;;;;;;4.83;3.97;;;;;;;;;;5035161;28;20179;-66
2022/04/21 15:28:45;;;;;;;4.30;3.90;;;;;;;;;;5035945;28;20179;-65
2022/04/21 15:31:11;;;;;;;4.20;3.60;;;;;;;;;;5035739;28;20202;-65
2022/04/21 15:33:37;;;;;;;5.27;3.73;;;;;;;;;;5036525;28;20724;-65
2022/04/21 15:36:04;;;;;;;5.57;3.43;;;;;;;;;;5017536;28;20714;-66
2022/04/21 15:38:30;;;;;;;7.20;3.63;;;;;;;;;;5035356;28;20595;-65
2022/04/21 15:40:56;;;;;;;3.50;3.20;;;;;;;;;;5035520;28;20175;-63
2022/04/21 15:43:23;;;;;;;6.03;3.63;;;;;;;;;;5035164;28;20202;-64
2022/04/21 15:45:49;;;;;;;3.40;2.83;;;;;;;;;;5035349;28;20233;-65